sensor_id;sensor_type;location;lat;lon;timestamp;pressure;altitude;pressure_sealevel;temperature;humidity
46174;BME280;31897;52.420;13.498;2023-01-16T00:01:44;99700;;;2.79349;32.8665
46174;BME280;31897;52.420;13.498;2023-01-16T00:04:45;99700;;;2.75925;32.90753
46174;BME280;31897;52.420;13.498;2023-01-16T00:07:46;99700;;;2.75053;32.91345
46174;BME280;31897;52.420;13.498;2023-01-16T00:10:47;99700;;;2.74827;32.95977
46174;BME280;31897;52.420;13.498;2023-01-16T00:13:48;99700;;;2.70821;32.97774
46174;BME280;31897;52.420;13.498;2023-01-16T00:16:49;99700;;;2.70208;33.0646
46174;BME280;31897;52.420;13.498;2023-01-16T00:19:49;99700;;;2.63166;33.11771
46174;BME280;31897;52.420;13.498;2023-01-16T00:22:50;99700;;;2.65201;33.12319
46174;BME280;31897;52.420;13.498;2023-01-16T00:25:51;99700;;;2.68851;33.0648
46174;BME280;31897;52.420;13.498;2023-01-16T00:28:52;99700;;;2.75279;33.06962
46174;BME280;31897;52.420;13.498;2023-01-16T00:31:52;99700;;;2.72663;33.0006
46174;BME280;31897;52.420;13.498;2023-01-16T00:34:53;99700;;;2.69206;33.03583
46174;BME280;31897;52.420;13.498;2023-01-16T00:37:54;99700;;;2.75408;33.02332
46174;BME280;31897;52.420;13.498;2023-01-16T00:40:55;99700;;;2.81029;33.0109
46174;BME280;31897;52.420;13.498;2023-01-16T00:43:56;99700;;;2.82934;32.89489
46174;BME280;31897;52.420;13.498;2023-01-16T00:46:57;99700;;;2.82482;32.90653
46174;BME280;31897;52.420;13.498;2023-01-16T00:49:57;99700;;;2.81061;32.86624
46174;BME280;31897;52.420;13.498;2023-01-16T00:52:58;99700;;;2.76216;32.9017
46174;BME280;31897;52.420;13.498;2023-01-16T00:55:59;99700;;;2.68883;32.92019
46174;BME280;31897;52.420;13.498;2023-01-16T00:59:00;99700;;;2.63037;32.95579
46174;BME280;31897;52.420;13.498;2023-01-16T01:02:00;99700;;;2.61292;33.0428
46174;BME280;31897;52.420;13.498;2023-01-16T01:05:01;99700;;;2.55834;33.0841
46174;BME280;31897;52.420;13.498;2023-01-16T01:08:02;99700;;;2.5354;33.12492
46174;BME280;31897;52.420;13.498;2023-01-16T01:11:07;99700;;;2.53314;33.05557
46174;BME280;31897;52.420;13.498;2023-01-16T01:14:07;99700;;;2.51344;33.10212
46174;BME280;31897;52.420;13.498;2023-01-16T01:17:08;99700;;;2.51473;33.11945
46174;BME280;31897;52.420;13.498;2023-01-16T01:20:09;99700;;;2.47435;33.13739
46174;BME280;31897;52.420;13.498;2023-01-16T01:23:10;99700;;;2.42945;33.17852
46174;BME280;31897;52.420;13.498;2023-01-16T01:26:12;99700;;;2.38036;33.28328
46174;BME280;31897;52.420;13.498;2023-01-16T01:29:13;99700;;;2.39328;33.27731
46174;BME280;31897;52.420;13.498;2023-01-16T01:32:14;99700;;;2.3894;33.27737
46174;BME280;31897;52.420;13.498;2023-01-16T01:35:15;99700;;;2.39328;33.31199
46174;BME280;31897;52.420;13.498;2023-01-16T01:38:15;99700;;;2.43559;33.29982
46174;BME280;31897;52.420;13.498;2023-01-16T01:41:16;99700;;;2.43947;33.27086
46174;BME280;31897;52.420;13.498;2023-01-16T01:47:54;99700;;;2.46498;33.24159
46174;BME280;31897;52.420;13.498;2023-01-16T01:50:57;99700;;;2.44302;33.28237
46174;BME280;31897;52.420;13.498;2023-01-16T01:54:01;99700;;;2.44916;33.2765
46174;BME280;31897;52.420;13.498;2023-01-16T01:57:04;99700;;;2.52054;33.30438
46174;BME280;31897;52.420;13.498;2023-01-16T02:00:08;99700;;;2.53895;33.26364
46174;BME280;31897;52.420;13.498;2023-01-16T02:03:10;99700;;;2.62552;33.27395
46174;BME280;31897;52.420;13.498;2023-01-16T02:06:14;99700;;;2.65653;33.16361
46174;BME280;31897;52.420;13.498;2023-01-16T02:09:17;99700;;;2.66525;33.18662
46174;BME280;31897;52.420;13.498;2023-01-16T02:12:18;99700;;;2.70014;33.14561
46174;BME280;31897;52.420;13.498;2023-01-16T02:15:20;99700;;;2.75537;33.06959
46174;BME280;31897;52.420;13.498;2023-01-16T02:18:21;99700;;;2.76797;32.99997
46174;BME280;31897;52.420;13.498;2023-01-16T02:21:29;99700;;;2.73276;33.07571
46174;BME280;31897;52.420;13.498;2023-01-16T02:24:41;99700;;;2.68237;33.07068
46174;BME280;31897;52.420;13.498;2023-01-16T02:27:50;99700;;;2.63424;33.17551
46174;BME280;31897;52.420;13.498;2023-01-16T02:31:00;99700;;;2.58192;33.19363
46174;BME280;31897;52.420;13.498;2023-01-16T02:34:11;99700;;;2.5438;33.24044
46174;BME280;31897;52.420;13.498;2023-01-16T02:37:19;99700;;;2.49696;33.2816
46174;BME280;31897;52.420;13.498;2023-01-16T02:40:27;99700;;;2.46143;33.42085
46174;BME280;31897;52.420;13.498;2023-01-16T02:43:32;99700;;;2.47952;33.44372
46174;BME280;31897;52.420;13.498;2023-01-16T02:46:35;99700;;;2.49502;33.39725
46174;BME280;31897;52.420;13.498;2023-01-16T02:49:41;99700;;;2.46466;33.36878
46174;BME280;31897;52.420;13.498;2023-01-16T02:52:44;99600;;;2.37357;33.47411
46174;BME280;31897;52.420;13.498;2023-01-16T02:55:47;99600;;;2.34289;33.52655
46174;BME280;31897;52.420;13.498;2023-01-16T02:58:50;99600;;;2.27053;33.59688
46174;BME280;31897;52.420;13.498;2023-01-16T03:01:51;99600;;;2.22111;33.6611
46174;BME280;31897;52.420;13.498;2023-01-16T03:04:52;99600;;;2.2153;33.67851
46174;BME280;31897;52.420;13.498;2023-01-16T03:07:59;99600;;;2.1704;33.69645
46174;BME280;31897;52.420;13.498;2023-01-16T03:11:19;99600;;;2.15102;33.78335
46174;BME280;31897;52.420;13.498;2023-01-16T03:14:24;99600;;;2.11904;33.8242
46174;BME280;31897;52.420;13.498;2023-01-16T03:17:34;99600;;;2.05637;33.88276
46174;BME280;31897;52.420;13.498;2023-01-16T03:20:40;99600;;;2.04216;33.93492
46174;BME280;31897;52.420;13.498;2023-01-16T03:23:49;99600;;;1.99048;34.06259
46174;BME280;31897;52.420;13.498;2023-01-16T03:26:52;99600;;;1.96529;34.07445
46174;BME280;31897;52.420;13.498;2023-01-16T03:29:56;99600;;;1.92168;34.18467
46174;BME280;31897;52.420;13.498;2023-01-16T03:32:59;99600;;;1.95689;34.17847
46174;BME280;31897;52.420;13.498;2023-01-16T03:36:03;99600;;;1.93234;34.21341
46174;BME280;31897;52.420;13.498;2023-01-16T03:39:07;99600;;;1.93331;34.21339
46174;BME280;31897;52.420;13.498;2023-01-16T03:42:12;99600;;;1.93525;34.23646
46174;BME280;31897;52.420;13.498;2023-01-16T03:45:15;99600;;;1.93848;34.23642
46174;BME280;31897;52.420;13.498;2023-01-16T03:48:18;99600;;;1.93848;34.25951
46174;BME280;31897;52.420;13.498;2023-01-16T03:51:21;99600;;;1.88486;34.3121
46174;BME280;31897;52.420;13.498;2023-01-16T03:54:25;99600;;;1.93072;34.35773
46174;BME280;31897;52.420;13.498;2023-01-16T03:57:31;99600;;;1.98983;34.31085
46174;BME280;31897;52.420;13.498;2023-01-16T04:00:37;99600;;;1.97627;34.27638
46174;BME280;31897;52.420;13.498;2023-01-16T04:03:41;99600;;;1.96141;34.38046
46174;BME280;31897;52.420;13.498;2023-01-16T04:06:45;99600;;;2.00275;34.33957
46174;BME280;31897;52.420;13.498;2023-01-16T04:09:49;99600;;;2.12324;34.34391
46174;BME280;31897;52.420;13.498;2023-01-16T04:12:52;99600;;;2.20141;34.26212
46174;BME280;31897;52.420;13.498;2023-01-16T04:15:55;99500;;;2.21433;34.12334
46174;BME280;31897;52.420;13.498;2023-01-16T04:18:56;99500;;;2.19269;34.16981
46174;BME280;31897;52.420;13.498;2023-01-16T04:21:58;99500;;;2.13874;34.19358
46174;BME280;31897;52.420;13.498;2023-01-16T04:25:00;99500;;;2.08222;34.29243
46174;BME280;31897;52.420;13.498;2023-01-16T04:28:02;99500;;;2.07866;34.37331
46174;BME280;31897;52.420;13.498;2023-01-16T04:31:03;99500;;;2.00792;34.34528
46174;BME280;31897;52.420;13.498;2023-01-16T04:34:04;99500;;;2.0244;34.3855
46174;BME280;31897;52.420;13.498;2023-01-16T04:37:05;99500;;;2.00695;34.35106
46174;BME280;31897;52.420;13.498;2023-01-16T04:40:06;99500;;;2.00502;34.36841
46174;BME280;31897;52.420;13.498;2023-01-16T04:43:07;99500;;;1.99145;34.35702
46174;BME280;31897;52.420;13.498;2023-01-16T04:46:08;99500;;;1.96302;34.37467
46174;BME280;31897;52.420;13.498;2023-01-16T04:49:09;99500;;;1.94526;34.37488
46174;BME280;31897;52.420;13.498;2023-01-16T04:52:10;99500;;;1.87646;34.4738
46174;BME280;31897;52.420;13.498;2023-01-16T04:55:12;99500;;;1.86354;34.44509
46174;BME280;31897;52.420;13.498;2023-01-16T04:58:13;99500;;;1.8377;34.43962
46174;BME280;31897;52.420;13.498;2023-01-16T05:01:13;99500;;;1.79829;34.49777
46174;BME280;31897;52.420;13.498;2023-01-16T05:04:15;99500;;;1.84609;34.503
46174;BME280;31897;52.420;13.498;2023-01-16T05:07:16;99500;;;1.83931;34.44537
46174;BME280;31897;52.420;13.498;2023-01-16T05:10:17;99500;;;1.84803;34.41064
46174;BME280;31897;52.420;13.498;2023-01-16T05:13:17;99500;;;1.8209;34.53214
46174;BME280;31897;52.420;13.498;2023-01-16T05:16:18;99500;;;1.79829;34.45738
46174;BME280;31897;52.420;13.498;2023-01-16T05:19:19;99500;;;1.76825;34.50966
46174;BME280;31897;52.420;13.498;2023-01-16T05:22:20;99500;;;1.76179;34.56743
46174;BME280;31897;52.420;13.498;2023-01-16T05:25:21;99500;;;1.79667;34.6132
46174;BME280;31897;52.420;13.498;2023-01-16T05:28:22;99500;;;1.80023;34.60162
46174;BME280;31897;52.420;13.498;2023-01-16T05:31:22;99500;;;1.77826;34.53839
46174;BME280;31897;52.420;13.498;2023-01-16T05:34:23;99500;;;1.74984;34.60218
46174;BME280;31897;52.420;13.498;2023-01-16T05:37:24;99500;;;1.70558;34.69497
46174;BME280;31897;52.420;13.498;2023-01-16T05:40:25;99500;;;1.77955;34.69416
46174;BME280;31897;52.420;13.498;2023-01-16T05:43:25;99500;;;1.84416;34.65306
46174;BME280;31897;52.420;13.498;2023-01-16T05:46:26;99400;;;1.92232;34.63488
46174;BME280;31897;52.420;13.498;2023-01-16T05:49:27;99400;;;1.95559;34.58256
46174;BME280;31897;52.420;13.498;2023-01-16T05:52:28;99400;;;1.99565;34.56479
46174;BME280;31897;52.420;13.498;2023-01-16T05:55:29;99400;;;1.99339;34.51287
46174;BME280;31897;52.420;13.498;2023-01-16T05:58:29;99400;;;1.99533;34.47243
46174;BME280;31897;52.420;13.498;2023-01-16T06:01:30;99400;;;1.93718;34.46156
46174;BME280;31897;52.420;13.498;2023-01-16T06:04:31;99400;;;1.88292;34.58338
46174;BME280;31897;52.420;13.498;2023-01-16T06:07:32;99400;;;1.8855;34.62375
46174;BME280;31897;52.420;13.498;2023-01-16T06:10:32;99400;;;1.87613;34.58923
46174;BME280;31897;52.420;13.498;2023-01-16T06:13:33;99400;;;1.85385;34.67027
46174;BME280;31897;52.420;13.498;2023-01-16T06:16:34;99400;;;1.88163;34.64688
46174;BME280;31897;52.420;13.498;2023-01-16T06:19:35;99400;;;2.01697;34.5126
46174;BME280;31897;52.420;13.498;2023-01-16T06:22:36;99400;;;2.09029;34.44247
46174;BME280;31897;52.420;13.498;2023-01-16T06:25:36;99400;;;2.13261;34.37845
46174;BME280;31897;52.420;13.498;2023-01-16T06:28:37;99400;;;2.17007;34.38956
46174;BME280;31897;52.420;13.498;2023-01-16T06:31:38;99400;;;2.19592;34.29684
46174;BME280;31897;52.420;13.498;2023-01-16T06:34:39;99400;;;2.17524;34.28554
46174;BME280;31897;52.420;13.498;2023-01-16T06:37:40;99400;;;2.16911;34.32604
46174;BME280;31897;52.420;13.498;2023-01-16T06:40:40;99400;;;2.1775;34.23931
46174;BME280;31897;52.420;13.498;2023-01-16T06:43:41;99400;;;2.15263;34.21073
46174;BME280;31897;52.420;13.498;2023-01-16T06:46:42;99400;;;2.12195;34.21688
46174;BME280;31897;52.420;13.498;2023-01-16T06:49:43;99400;;;2.1045;34.27484
46174;BME280;31897;52.420;13.498;2023-01-16T06:52:44;99400;;;2.0932;34.26923
46174;BME280;31897;52.420;13.498;2023-01-16T06:55:45;99400;;;2.11549;34.23429
46174;BME280;31897;52.420;13.498;2023-01-16T06:58:46;99400;;;2.07026;34.25215
46174;BME280;31897;52.420;13.498;2023-01-16T07:01:46;99400;;;2.00243;34.3107
46174;BME280;31897;52.420;13.498;2023-01-16T07:04:47;99400;;;1.97594;34.39761
46174;BME280;31897;52.420;13.498;2023-01-16T07:07:48;99400;;;2.00275;34.35689
46174;BME280;31897;52.420;13.498;2023-01-16T07:10:49;99400;;;2.03118;34.345
46174;BME280;31897;52.420;13.498;2023-01-16T07:13:50;99400;;;2.06833;34.29837
46174;BME280;31897;52.420;13.498;2023-01-16T07:16:51;99400;;;2.09417;34.29229
46174;BME280;31897;52.420;13.498;2023-01-16T07:19:51;99400;;;2.07802;34.30403
46174;BME280;31897;52.420;13.498;2023-01-16T07:22:52;99400;;;2.12776;34.20526
46174;BME280;31897;52.420;13.498;2023-01-16T07:25:53;99400;;;2.21465;34.16954
46174;BME280;31897;52.420;13.498;2023-01-16T07:28:54;99400;;;2.30316;34.08757
46174;BME280;31897;52.420;13.498;2023-01-16T07:31:56;99400;;;2.34838;33.99455
46174;BME280;31897;52.420;13.498;2023-01-16T07:34:57;99400;;;2.329;33.94279
46174;BME280;31897;52.420;13.498;2023-01-16T07:37:58;99400;;;2.2967;33.98943
46174;BME280;31897;52.420;13.498;2023-01-16T07:40:59;99400;;;2.28733;34.01844
46174;BME280;31897;52.420;13.498;2023-01-16T07:44:00;99400;;;2.30832;33.97773
46174;BME280;31897;52.420;13.498;2023-01-16T07:47:00;99400;;;2.31704;33.94295
46174;BME280;31897;52.420;13.498;2023-01-16T07:50:01;99400;;;2.31349;33.93144
46174;BME280;31897;52.420;13.498;2023-01-16T07:53:02;99400;;;2.31963;33.89669
46174;BME280;31897;52.420;13.498;2023-01-16T07:56:03;99400;;;2.31414;33.92565
46174;BME280;31897;52.420;13.498;2023-01-16T07:59:04;99300;;;2.34095;33.91953
46174;BME280;31897;52.420;13.498;2023-01-16T08:02:05;99300;;;2.39651;33.86102
46174;BME280;31897;52.420;13.498;2023-01-16T08:05:06;99300;;;2.42138;33.79712
46174;BME280;31897;52.420;13.498;2023-01-16T08:08:07;99300;;;2.45013;33.74471
46174;BME280;31897;52.420;13.498;2023-01-16T08:11:08;99300;;;2.41459;33.73363
46174;BME280;31897;52.420;13.498;2023-01-16T08:14:09;99300;;;2.40523;33.76265
46174;BME280;31897;52.420;13.498;2023-01-16T08:17:10;99300;;;2.34256;33.71725
46174;BME280;31897;52.420;13.498;2023-01-16T08:20:11;99300;;;2.31285;33.78699
46174;BME280;31897;52.420;13.498;2023-01-16T08:23:12;99300;;;2.31058;33.70613
46174;BME280;31897;52.420;13.498;2023-01-16T08:26:13;99300;;;2.31995;33.64244
46174;BME280;31897;52.420;13.498;2023-01-16T08:29:13;99300;;;2.33869;33.53816
46174;BME280;31897;52.420;13.498;2023-01-16T08:32:14;99300;;;2.42009;33.43878
46174;BME280;31897;52.420;13.498;2023-01-16T08:35:15;99300;;;2.48469;33.32802
46174;BME280;31897;52.420;13.498;2023-01-16T08:38:16;99300;;;2.50342;33.24681
46174;BME280;31897;52.420;13.498;2023-01-16T08:41:17;99300;;;2.59807;33.17026
46174;BME280;31897;52.420;13.498;2023-01-16T08:44:18;99300;;;2.77185;32.97098
46174;BME280;31897;52.420;13.498;2023-01-16T08:47:19;99300;;;2.82611;32.79077
46174;BME280;31897;52.420;13.498;2023-01-16T08:50:21;99300;;;2.86811;32.81905
46174;BME280;31897;52.420;13.498;2023-01-16T08:53:22;99300;;;2.84065;32.83105
46174;BME280;31897;52.420;13.498;2023-01-16T08:56:23;99300;;;2.75505;32.84396
46174;BME280;31897;52.420;13.498;2023-01-16T08:59:24;99200;;;2.76636;32.80906
46174;BME280;31897;52.420;13.498;2023-01-16T09:02:24;99200;;;2.76183;32.75128
46174;BME280;31897;52.420;13.498;2023-01-16T09:05:26;99200;;;2.71758;32.72305
46174;BME280;31897;52.420;13.498;2023-01-16T09:08:28;99200;;;2.67301;32.66012
46174;BME280;31897;52.420;13.498;2023-01-16T09:11:28;99200;;;2.65621;32.55047
46174;BME280;31897;52.420;13.498;2023-01-16T09:14:29;99200;;;2.58482;32.60947
46174;BME280;31897;52.420;13.498;2023-01-16T09:17:30;99200;;;2.61971;32.56263
46174;BME280;31897;52.420;13.498;2023-01-16T09:20:31;99200;;;2.64232;32.51599
46174;BME280;31897;52.420;13.498;2023-01-16T09:23:32;99200;;;2.70918;32.4744
46174;BME280;31897;52.420;13.498;2023-01-16T09:26:32;99200;;;2.75602;32.45049
46174;BME280;31897;52.420;13.498;2023-01-16T09:29:33;99200;;;2.85874;32.39092
46174;BME280;31897;52.420;13.498;2023-01-16T09:32:34;99200;;;2.93885;32.25065
46174;BME280;31897;52.420;13.498;2023-01-16T09:35:34;99200;;;3.03026;32.23752
46174;BME280;31897;52.420;13.498;2023-01-16T09:38:35;99200;;;3.09454;32.14376
46174;BME280;31897;52.420;13.498;2023-01-16T09:41:38;99200;;;3.16076;32.10786
46174;BME280;31897;52.420;13.498;2023-01-16T09:44:43;99200;;;3.26574;32.03072
46174;BME280;31897;52.420;13.498;2023-01-16T09:47:47;99200;;;3.41206;31.90642
46174;BME280;31897;52.420;13.498;2023-01-16T09:50:51;99200;;;4.62435;30.20427
46174;BME280;31897;52.420;13.498;2023-01-16T09:53:54;99200;;;8.23514;26.35503
46174;BME280;31897;52.420;13.498;2023-01-16T09:56:58;99100;;;11.7272;23.56457
46174;BME280;31897;52.420;13.498;2023-01-16T10:00:00;99100;;;9.66974;25.24813
46174;BME280;31897;52.420;13.498;2023-01-16T10:03:03;99100;;;7.94151;26.80438
46174;BME280;31897;52.420;13.498;2023-01-16T10:06:06;99100;;;6.94367;27.45551
46174;BME280;31897;52.420;13.498;2023-01-16T10:09:13;99100;;;6.32507;27.7482
46174;BME280;31897;52.420;13.498;2023-01-16T10:12:18;99100;;;5.83536;28.01882
46174;BME280;31897;52.420;13.498;2023-01-16T10:15:22;99100;;;5.54852;28.2075
46174;BME280;31897;52.420;13.498;2023-01-16T10:18:31;99100;;;5.35599;28.271
46174;BME280;31897;52.420;13.498;2023-01-16T10:21:38;99100;;;5.27524;28.41885
46174;BME280;31897;52.420;13.498;2023-01-16T10:24:45;99100;;;5.31788;28.38275
46174;BME280;31897;52.420;13.498;2023-01-16T10:27:50;99100;;;5.48391;28.12181
46174;BME280;31897;52.420;13.498;2023-01-16T10:30:58;99100;;;6.22138;27.55255
46174;BME280;31897;52.420;13.498;2023-01-16T10:34:03;99100;;;7.81326;26.36277
46174;BME280;31897;52.420;13.498;2023-01-16T10:37:05;99000;;;9.91331;24.73852
46174;BME280;31897;52.420;13.498;2023-01-16T10:40:10;99000;;;11.13086;23.9607
46174;BME280;31897;52.420;13.498;2023-01-16T10:43:13;99000;;;12.69601;22.44574
46174;BME280;31897;52.420;13.498;2023-01-16T10:46:17;99000;;;12.53449;22.36956
46174;BME280;31897;52.420;13.498;2023-01-16T10:49:19;99000;;;12.71895;21.99956
46174;BME280;31897;52.420;13.498;2023-01-16T10:52:20;99000;;;13.95365;20.95702
46174;BME280;31897;52.420;13.498;2023-01-16T10:55:21;99000;;;15.15283;20.17857
46174;BME280;31897;52.420;13.498;2023-01-16T10:58:24;99000;;;16.59206;19.22126
46174;BME280;31897;52.420;13.498;2023-01-16T11:01:25;99000;;;18.37312;18.01663
46174;BME280;31897;52.420;13.498;2023-01-16T11:04:32;99000;;;19.86668;16.63654
46174;BME280;31897;52.420;13.498;2023-01-16T11:07:33;99000;;;20.86434;15.8763
46174;BME280;31897;52.420;13.498;2023-01-16T11:10:34;98900;;;21.48045;14.78415
46174;BME280;31897;52.420;13.498;2023-01-16T11:13:35;98900;;;19.92742;15.12834
46174;BME280;31897;52.420;13.498;2023-01-16T11:16:35;98900;;;16.94259;16.31764
46174;BME280;31897;52.420;13.498;2023-01-16T11:19:40;98900;;;14.81944;17.19777
46174;BME280;31897;52.420;13.498;2023-01-16T11:22:41;98900;;;15.40417;17.04591
46174;BME280;31897;52.420;13.498;2023-01-16T11:25:45;98900;;;14.78778;17.2234
46174;BME280;31897;52.420;13.498;2023-01-16T11:28:47;98900;;;13.3602;18.03962
46174;BME280;31897;52.420;13.498;2023-01-16T11:31:48;98900;;;13.15281;18.22307
46174;BME280;31897;52.420;13.498;2023-01-16T11:34:52;98900;;;14.2738;17.69303
46174;BME280;31897;52.420;13.498;2023-01-16T11:37:54;98900;;;14.54129;17.61297
46174;BME280;31897;52.420;13.498;2023-01-16T11:40:55;98900;;;15.28464;17.01664
46174;BME280;31897;52.420;13.498;2023-01-16T11:44:14;98900;;;15.79733;16.80848
46174;BME280;31897;52.420;13.498;2023-01-16T11:47:16;98900;;;15.57992;16.68906
46174;BME280;31897;52.420;13.498;2023-01-16T11:50:21;98900;;;14.53515;17.28504
46174;BME280;31897;52.420;13.498;2023-01-16T11:53:28;98900;;;13.75077;17.61984
46174;BME280;31897;52.420;13.498;2023-01-16T11:56:34;98900;;;13.74011;17.67403
46174;BME280;31897;52.420;13.498;2023-01-16T11:59:44;98800;;;14.8763;17.05725
46174;BME280;31897;52.420;13.498;2023-01-16T12:06:26;98800;;;16.57107;16.00917
46174;BME280;31897;52.420;13.498;2023-01-16T12:09:34;98800;;;16.92127;15.55652
46174;BME280;31897;52.420;13.498;2023-01-16T12:12:38;98800;;;18.20836;14.71504
46174;BME280;31897;52.420;13.498;2023-01-16T12:15:45;98800;;;18.21773;14.69038
46174;BME280;31897;52.420;13.498;2023-01-16T12:18:55;98800;;;16.41664;15.49648
46174;BME280;31897;52.420;13.498;2023-01-16T12:22:02;98800;;;15.58282;15.81518
46174;BME280;31897;52.420;13.498;2023-01-16T12:25:15;98800;;;14.87823;16.21475
46174;BME280;31897;52.420;13.498;2023-01-16T12:28:24;98800;;;15.00293;15.91467
46174;BME280;31897;52.420;13.498;2023-01-16T12:31:31;98800;;;15.07627;15.79091
46174;BME280;31897;52.420;13.498;2023-01-16T12:34:56;98800;;;16.60789;15.07714
46174;BME280;31897;52.420;13.498;2023-01-16T12:38:10;98800;;;16.55007;15.04463
46174;BME280;31897;52.420;13.498;2023-01-16T12:41:16;98800;;;15.78021;15.47429
46174;BME280;31897;52.420;13.498;2023-01-16T12:44:21;98700;;;17.01883;14.75801
46174;BME280;31897;52.420;13.498;2023-01-16T12:47:32;98700;;;16.34104;15.12321
46174;BME280;31897;52.420;13.498;2023-01-16T12:50:40;98700;;;17.2831;14.49542
46174;BME280;31897;52.420;13.498;2023-01-16T12:53:54;98700;;;18.55501;13.89202
46174;BME280;31897;52.420;13.498;2023-01-16T12:57:03;98700;;;19.94519;13.29531
46174;BME280;31897;52.420;13.498;2023-01-16T13:00:09;98700;;;17.39811;14.66865
46174;BME280;31897;52.420;13.498;2023-01-16T13:03:15;98700;;;15.49204;15.36567
46174;BME280;31897;52.420;13.498;2023-01-16T13:06:20;98700;;;14.58167;15.80776
46174;BME280;31897;52.420;13.498;2023-01-16T13:09:23;98700;;;13.11598;16.66623
46174;BME280;31897;52.420;13.498;2023-01-16T13:12:38;98700;;;11.9698;17.28185
46174;BME280;31897;52.420;13.498;2023-01-16T13:15:40;98700;;;11.17221;17.84028
46174;BME280;31897;52.420;13.498;2023-01-16T13:18:42;98700;;;10.60947;18.30149
46174;BME280;31897;52.420;13.498;2023-01-16T13:21:51;98700;;;10.11069;18.71696
46174;BME280;31897;52.420;13.498;2023-01-16T13:24:56;98700;;;9.87649;19.05344
46174;BME280;31897;52.420;13.498;2023-01-16T13:28:00;98700;;;9.61838;19.31988
46174;BME280;31897;52.420;13.498;2023-01-16T13:31:04;98700;;;9.43231;19.53534
46174;BME280;31897;52.420;13.498;2023-01-16T13:34:08;98600;;;9.1952;19.90036
46174;BME280;31897;52.420;13.498;2023-01-16T13:37:16;98600;;;8.86958;20.25728
46174;BME280;31897;52.420;13.498;2023-01-16T13:40:28;98600;;;8.65638;20.46725
46174;BME280;31897;52.420;13.498;2023-01-16T13:43:33;98600;;;8.50391;20.59778
46174;BME280;31897;52.420;13.498;2023-01-16T13:46:35;98600;;;8.31978;20.81783
46174;BME280;31897;52.420;13.498;2023-01-16T13:49:37;98600;;;8.21511;20.92834
46174;BME280;31897;52.420;13.498;2023-01-16T13:52:40;98600;;;8.05941;21.08807
46174;BME280;31897;52.420;13.498;2023-01-16T13:55:41;98600;;;7.87916;21.38384
46174;BME280;31897;52.420;13.498;2023-01-16T13:58:44;98600;;;7.6637;21.65735
46174;BME280;31897;52.420;13.498;2023-01-16T14:01:53;98600;;;7.46762;22.00015
46174;BME280;31897;52.420;13.498;2023-01-16T14:08:28;98600;;;7.3271;22.36378
46174;BME280;31897;52.420;13.498;2023-01-16T14:12:00;98600;;;7.14814;22.65248
46174;BME280;31897;52.420;13.498;2023-01-16T14:15:18;98600;;;6.95885;22.9999
46174;BME280;31897;52.420;13.498;2023-01-16T14:18:20;98600;;;6.86;23.23807
46174;BME280;31897;52.420;13.498;2023-01-16T14:21:23;98600;;;6.77504;23.38191
46174;BME280;31897;52.420;13.498;2023-01-16T14:24:24;98600;;;6.64196;23.62116
46174;BME280;31897;52.420;13.498;2023-01-16T14:27:28;98600;;;6.50693;23.88373
46174;BME280;31897;52.420;13.498;2023-01-16T14:30:30;98600;;;6.30859;24.20691
46174;BME280;31897;52.420;13.498;2023-01-16T14:33:32;98600;;;6.24916;24.39033
46174;BME280;31897;52.420;13.498;2023-01-16T14:36:33;98500;;;6.15516;24.53984
46174;BME280;31897;52.420;13.498;2023-01-16T14:39:34;98500;;;5.97168;24.85603
46174;BME280;31897;52.420;13.498;2023-01-16T14:42:37;98500;;;5.8654;25.01159
46174;BME280;31897;52.420;13.498;2023-01-16T14:45:40;98500;;;5.82115;25.19415
46174;BME280;31897;52.420;13.498;2023-01-16T14:48:41;98500;;;5.66093;25.55566
46174;BME280;31897;52.420;13.498;2023-01-16T14:51:53;98500;;;5.50943;25.87575
46174;BME280;31897;52.420;13.498;2023-01-16T14:54:55;98500;;;5.45258;26.03509
46174;BME280;31897;52.420;13.498;2023-01-16T14:57:56;98500;;;5.41931;26.11198
46174;BME280;31897;52.420;13.498;2023-01-16T15:00:58;98500;;;5.35955;26.27134
46174;BME280;31897;52.420;13.498;2023-01-16T15:03:59;98500;;;5.28977;26.43095
46174;BME280;31897;52.420;13.498;2023-01-16T15:07:00;98500;;;5.2481;26.54301
46174;BME280;31897;52.420;13.498;2023-01-16T15:10:03;98500;;;5.17349;26.69685
46174;BME280;31897;52.420;13.498;2023-01-16T15:13:13;98500;;;5.19093;26.69632
46174;BME280;31897;52.420;13.498;2023-01-16T15:16:14;98500;;;5.10565;26.81546
46174;BME280;31897;52.420;13.498;2023-01-16T15:19:18;98500;;;5.00551;26.91752
46174;BME280;31897;52.420;13.498;2023-01-16T15:22:20;98500;;;5.00228;26.97587
46174;BME280;31897;52.420;13.498;2023-01-16T15:25:32;98500;;;5.03362;26.93998
46174;BME280;31897;52.420;13.498;2023-01-16T15:28:38;98500;;;4.94091;27.07089
46174;BME280;31897;52.420;13.498;2023-01-16T15:31:42;98500;;;4.9141;27.11828
46174;BME280;31897;52.420;13.498;2023-01-16T15:34:44;98500;;;4.83108;27.21971
46174;BME280;31897;52.420;13.498;2023-01-16T15:37:47;98500;;;4.78909;27.26169
46174;BME280;31897;52.420;13.498;2023-01-16T15:40:49;98500;;;4.74613;27.35608
46174;BME280;31897;52.420;13.498;2023-01-16T15:43:51;98500;;;4.7429;27.40274